Time,TemperatureF,DewpointF,PressureIn,WindDirection,WindDirectionDegrees,WindSpeedMPH,WindSpeedGustMPH,Humidity,HourlyPrecipIn,Conditions,Clouds,dailyrainin,SoftwareType,DateUTC
2013-04-12 00:00:00,71.7,65.6,29.92,SW,225,3.0,14.0,81,0.00,,,0.00,VWS V14.01,2013-04-12 04:00:00,
2013-04-12 00:30:00,71.0,65.2,29.92,SW,225,3.0,16.0,82,0.00,,,0.00,VWS V14.01,2013-04-12 04:30:00,
2013-04-12 01:00:00,70.4,65.0,29.92,SW,225,3.0,12.0,83,0.00,,,0.00,VWS V14.01,2013-04-12 05:00:00,
2013-04-12 01:30:00,69.9,65.2,29.90,SW,225,3.0,14.0,85,0.00,,,0.00,VWS V14.01,2013-04-12 05:30:00,
2013-04-12 02:00:00,69.5,65.1,29.88,SW,225,4.0,17.0,86,0.00,,,0.00,VWS V14.01,2013-04-12 06:00:00,
2013-04-12 02:30:00,69.4,65.0,29.88,SW,225,3.0,17.0,86,0.00,,,0.00,VWS V14.01,2013-04-12 06:30:00,
2013-04-12 03:00:00,69.5,64.8,29.86,SW,225,3.0,15.0,85,0.00,,,0.00,VWS V14.01,2013-04-12 07:00:00,
2013-04-12 03:30:00,69.7,65.0,29.84,SW,225,4.0,15.0,85,0.00,,,0.00,VWS V14.01,2013-04-12 07:30:00,
2013-04-12 04:00:00,68.0,65.3,29.84,SW,225,3.0,16.0,91,0.21,,,0.21,VWS V14.01,2013-04-12 08:00:00,
2013-04-12 04:30:00,67.2,65.1,29.83,SW,225,2.0,10.0,93,0.23,,,0.23,VWS V14.01,2013-04-12 08:30:00,
2013-04-12 05:00:00,67.0,65.2,29.83,SW,225,4.0,15.0,94,0.36,,,0.36,VWS V14.01,2013-04-12 09:00:00,
2013-04-12 05:30:00,66.8,65.3,29.83,SW,225,3.0,13.0,95,0.17,,,0.38,VWS V14.01,2013-04-12 09:30:00,
2013-04-12 06:00:00,66.7,64.9,29.83,SW,225,3.0,15.0,94,0.18,,,0.41,VWS V14.01,2013-04-12 10:00:00,
2013-04-12 06:30:00,65.7,63.9,29.83,SW,225,1.0,13.0,94,0.05,,,0.41,VWS V14.01,2013-04-12 10:30:00,
2013-04-12 07:00:00,64.7,62.9,29.85,SW,225,2.0,14.0,94,0.08,,,0.46,VWS V14.01,2013-04-12 11:00:00,
2013-04-12 07:30:00,64.3,62.5,29.84,SW,225,2.0,7.0,94,0.06,,,0.47,VWS V14.01,2013-04-12 11:30:00,
2013-04-12 08:00:00,64.6,63.1,29.85,SW,225,1.0,7.0,95,0.06,,,0.47,VWS V14.01,2013-04-12 12:00:00,
2013-04-12 08:30:00,65.8,64.6,29.84,SW,225,1.0,9.0,96,0.01,,,0.47,VWS V14.01,2013-04-12 12:30:00,
2013-04-12 09:00:00,66.5,65.3,29.85,SW,225,1.0,10.0,96,0.01,,,0.48,VWS V14.01,2013-04-12 13:00:00,
2013-04-12 09:30:00,68.7,67.2,29.84,SSW,202,1.0,12.0,95,0.01,,,0.48,VWS V14.01,2013-04-12 13:30:00,
2013-04-12 10:00:00,71.1,67.4,29.83,SW,225,2.0,13.0,88,0.01,,,0.48,VWS V14.01,2013-04-12 14:00:00,
2013-04-12 10:30:00,72.3,67.2,29.83,SW,225,3.0,19.0,84,0.00,,,0.48,VWS V14.01,2013-04-12 14:30:00,
2013-04-12 11:00:00,73.9,67.7,29.83,SW,225,3.0,13.0,81,0.00,,,0.48,VWS V14.01,2013-04-12 15:00:00,
2013-04-12 11:30:00,75.6,67.5,29.83,SW,225,2.0,17.0,76,0.00,,,0.48,VWS V14.01,2013-04-12 15:30:00,
2013-04-12 12:00:00,77.0,67.7,29.82,SSW,202,2.0,13.0,73,0.00,,,0.48,VWS V14.01,2013-04-12 16:00:00,
2013-04-12 12:30:00,77.5,66.1,29.82,SW,225,2.0,15.0,68,0.00,,,0.48,VWS V14.01,2013-04-12 16:30:00,
2013-04-12 13:00:00,78.8,63.3,29.81,North,0,1.0,15.0,59,0.00,,,0.48,VWS V14.01,2013-04-12 17:00:00,
2013-04-12 13:30:00,79.1,65.0,29.80,SW,225,2.0,14.0,62,0.00,,,0.48,VWS V14.01,2013-04-12 17:30:00,
2013-04-12 14:00:00,80.4,63.8,29.79,SW,225,3.0,14.0,57,0.00,,,0.48,VWS V14.01,2013-04-12 18:00:00,
2013-04-12 14:30:00,81.6,64.9,29.78,SW,225,3.0,13.0,57,0.00,,,0.48,VWS V14.01,2013-04-12 18:30:00,
2013-04-12 15:00:00,80.8,63.7,29.77,SSW,202,2.0,14.0,56,0.00,,,0.48,VWS V14.01,2013-04-12 19:00:00,
2013-04-12 15:30:00,81.7,64.0,29.76,SW,225,2.0,12.0,55,0.00,,,0.48,VWS V14.01,2013-04-12 19:30:00,
2013-04-12 16:00:00,82.5,64.2,29.75,SW,225,1.0,14.0,54,0.00,,,0.48,VWS V14.01,2013-04-12 20:00:00,
2013-04-12 16:30:00,82.4,63.0,29.73,SW,225,3.0,13.0,52,0.00,,,0.48,VWS V14.01,2013-04-12 20:30:00,
2013-04-12 17:00:00,81.7,60.7,29.74,SW,225,3.0,15.0,49,0.00,,,0.48,VWS V14.01,2013-04-12 21:00:00,
2013-04-12 17:30:00,81.3,60.3,29.74,SW,225,2.0,14.0,49,0.00,,,0.48,VWS V14.01,2013-04-12 21:30:00,
2013-04-12 18:00:00,80.8,59.9,29.74,SW,225,1.0,13.0,49,0.00,,,0.48,VWS V14.01,2013-04-12 22:00:00,
2013-04-12 18:30:00,79.8,57.8,29.75,SSW,202,0.0,7.0,47,0.00,,,0.48,VWS V14.01,2013-04-12 22:30:00,
2013-04-12 19:00:00,77.6,54.6,29.78,NW,315,1.0,12.0,45,0.00,,,0.48,VWS V14.01,2013-04-12 23:00:00,
2013-04-12 19:30:00,75.3,53.1,29.80,NNW,338,1.0,7.0,46,0.00,,,0.48,VWS V14.01,2013-04-12 23:30:00,
2013-04-12 20:00:00,73.1,49.9,29.82,NNE,22,1.0,9.0,44,0.00,,,0.48,VWS V14.01,2013-04-13 00:00:00,
2013-04-12 20:30:00,71.3,49.5,29.83,NE,45,0.0,9.0,46,0.00,,,0.48,VWS V14.01,2013-04-13 00:30:00,
2013-04-12 21:00:00,68.9,52.6,29.84,NW,315,0.0,1.0,56,0.00,,,0.48,VWS V14.01,2013-04-13 01:00:00,
2013-04-12 21:30:00,65.1,48.1,29.86,NW,315,0.0,3.0,54,0.00,,,0.48,VWS V14.01,2013-04-13 01:30:00,
2013-04-12 22:00:00,65.2,43.9,29.88,NW,315,0.0,5.0,46,0.00,,,0.48,VWS V14.01,2013-04-13 02:00:00,
2013-04-12 22:30:00,65.6,44.3,29.89,NW,315,0.0,4.0,46,0.00,,,0.48,VWS V14.01,2013-04-13 02:30:00,
2013-04-12 23:00:00,64.6,43.4,29.91,North,0,0.0,7.0,46,0.00,,,0.48,VWS V14.01,2013-04-13 03:00:00,
2013-04-12 23:30:00,63.6,44.1,29.92,North,0,0.0,6.0,49,0.00,,,0.48,VWS V14.01,2013-04-13 03:30:00,